Terminal Aerodrome Forecast
Issued by NWS Melbourne, FL

Home | Current Version | Previous Version | Text Only | Print | Product List | Glossary On
Versions: 1 2 3 4 5 6 7 8 9 10 11 12 13
000
FTUS42 KMLB 270500
TAFVRB
TAF
KVRB 270522Z 2706/2806 04005KT P6SM OVC020
     FM270900 05004KT 5SM BR BKN010 OVC020
     FM271600 08007KT P6SM BKN035
     FM280200 10004KT P6SM BKN020 OVC035=

USA.gov is the U.S. government's official web portal to all federal, state and local government web resources and services.